sensor_id;sensor_type;location;lat;lon;timestamp;P1;durP1;ratioP1;P2;durP2;ratioP2
7587;SDS011;3835;48.850;8.938;2023-12-20T00:00:20;11.27;;;10.77;;
7587;SDS011;3835;48.850;8.938;2023-12-20T00:02:47;10.77;;;10.27;;
7587;SDS011;3835;48.850;8.938;2023-12-20T00:05:14;10.63;;;10.13;;
7587;SDS011;3835;48.850;8.938;2023-12-20T00:07:41;11.40;;;10.90;;
7587;SDS011;3835;48.850;8.938;2023-12-20T00:10:08;11.17;;;10.57;;
7587;SDS011;3835;48.850;8.938;2023-12-20T00:12:35;12.40;;;11.80;;
7587;SDS011;3835;48.850;8.938;2023-12-20T00:15:02;12.23;;;11.53;;
7587;SDS011;3835;48.850;8.938;2023-12-20T00:17:30;13.30;;;12.60;;
7587;SDS011;3835;48.850;8.938;2023-12-20T00:19:57;11.57;;;10.87;;
7587;SDS011;3835;48.850;8.938;2023-12-20T00:22:24;12.53;;;11.73;;
7587;SDS011;3835;48.850;8.938;2023-12-20T00:24:51;11.70;;;11.10;;
7587;SDS011;3835;48.850;8.938;2023-12-20T00:27:17;12.87;;;12.27;;
7587;SDS011;3835;48.850;8.938;2023-12-20T00:29:44;11.70;;;11.07;;
7587;SDS011;3835;48.850;8.938;2023-12-20T00:32:14;14.17;;;13.53;;
7587;SDS011;3835;48.850;8.938;2023-12-20T00:34:43;12.37;;;11.67;;
7587;SDS011;3835;48.850;8.938;2023-12-20T00:37:10;13.03;;;12.03;;
7587;SDS011;3835;48.850;8.938;2023-12-20T00:39:37;13.33;;;12.53;;
7587;SDS011;3835;48.850;8.938;2023-12-20T00:42:04;11.93;;;11.33;;
7587;SDS011;3835;48.850;8.938;2023-12-20T00:44:31;12.10;;;11.47;;
7587;SDS011;3835;48.850;8.938;2023-12-20T00:46:58;12.43;;;11.73;;
7587;SDS011;3835;48.850;8.938;2023-12-20T00:49:26;11.87;;;11.27;;
7587;SDS011;3835;48.850;8.938;2023-12-20T00:51:54;12.40;;;11.63;;
7587;SDS011;3835;48.850;8.938;2023-12-20T00:54:21;11.90;;;11.27;;
7587;SDS011;3835;48.850;8.938;2023-12-20T00:56:48;12.03;;;11.43;;
7587;SDS011;3835;48.850;8.938;2023-12-20T00:59:16;12.90;;;12.27;;
7587;SDS011;3835;48.850;8.938;2023-12-20T01:01:43;12.57;;;11.97;;
7587;SDS011;3835;48.850;8.938;2023-12-20T01:04:10;12.73;;;12.00;;
7587;SDS011;3835;48.850;8.938;2023-12-20T01:06:37;12.03;;;11.43;;
7587;SDS011;3835;48.850;8.938;2023-12-20T01:09:05;12.30;;;11.60;;
7587;SDS011;3835;48.850;8.938;2023-12-20T01:11:32;12.97;;;12.27;;
7587;SDS011;3835;48.850;8.938;2023-12-20T01:13:59;12.07;;;11.47;;
7587;SDS011;3835;48.850;8.938;2023-12-20T01:16:26;12.40;;;11.80;;
7587;SDS011;3835;48.850;8.938;2023-12-20T01:18:53;11.43;;;10.93;;
7587;SDS011;3835;48.850;8.938;2023-12-20T01:21:19;12.13;;;11.53;;
7587;SDS011;3835;48.850;8.938;2023-12-20T01:23:46;11.63;;;11.13;;
7587;SDS011;3835;48.850;8.938;2023-12-20T01:26:15;11.30;;;10.80;;
7587;SDS011;3835;48.850;8.938;2023-12-20T01:28:42;11.27;;;10.77;;
7587;SDS011;3835;48.850;8.938;2023-12-20T01:31:09;12.30;;;11.80;;
7587;SDS011;3835;48.850;8.938;2023-12-20T01:33:36;10.23;;;9.83;;
7587;SDS011;3835;48.850;8.938;2023-12-20T01:36:03;10.27;;;9.87;;
7587;SDS011;3835;48.850;8.938;2023-12-20T01:38:31;9.93;;;9.53;;
7587;SDS011;3835;48.850;8.938;2023-12-20T01:40:58;11.37;;;10.97;;
7587;SDS011;3835;48.850;8.938;2023-12-20T01:43:26;10.83;;;10.43;;
7587;SDS011;3835;48.850;8.938;2023-12-20T01:45:53;9.93;;;9.53;;
7587;SDS011;3835;48.850;8.938;2023-12-20T01:48:22;10.87;;;10.47;;
7587;SDS011;3835;48.850;8.938;2023-12-20T01:50:49;12.10;;;11.63;;
7587;SDS011;3835;48.850;8.938;2023-12-20T01:53:17;10.77;;;10.37;;
7587;SDS011;3835;48.850;8.938;2023-12-20T01:55:46;11.77;;;11.37;;
7587;SDS011;3835;48.850;8.938;2023-12-20T01:58:15;11.50;;;11.10;;
7587;SDS011;3835;48.850;8.938;2023-12-20T02:00:44;10.80;;;10.40;;
7587;SDS011;3835;48.850;8.938;2023-12-20T02:03:11;10.20;;;9.80;;
7587;SDS011;3835;48.850;8.938;2023-12-20T02:05:38;10.43;;;10.03;;
7587;SDS011;3835;48.850;8.938;2023-12-20T02:08:06;10.10;;;9.70;;
7587;SDS011;3835;48.850;8.938;2023-12-20T02:10:33;10.07;;;9.67;;
7587;SDS011;3835;48.850;8.938;2023-12-20T02:13:01;12.03;;;11.43;;
7587;SDS011;3835;48.850;8.938;2023-12-20T02:15:27;11.13;;;10.63;;
7587;SDS011;3835;48.850;8.938;2023-12-20T02:17:56;11.63;;;11.23;;
7587;SDS011;3835;48.850;8.938;2023-12-20T02:20:23;11.30;;;10.90;;
7587;SDS011;3835;48.850;8.938;2023-12-20T02:22:51;11.57;;;11.17;;
7587;SDS011;3835;48.850;8.938;2023-12-20T02:25:18;11.20;;;10.80;;
7587;SDS011;3835;48.850;8.938;2023-12-20T02:27:44;11.43;;;10.93;;
7587;SDS011;3835;48.850;8.938;2023-12-20T02:30:11;9.47;;;9.17;;
7587;SDS011;3835;48.850;8.938;2023-12-20T02:32:38;11.47;;;11.07;;
7587;SDS011;3835;48.850;8.938;2023-12-20T02:35:05;13.67;;;13.17;;
7587;SDS011;3835;48.850;8.938;2023-12-20T02:37:33;12.73;;;12.23;;
7587;SDS011;3835;48.850;8.938;2023-12-20T02:40:01;10.57;;;10.17;;
7587;SDS011;3835;48.850;8.938;2023-12-20T02:42:29;11.57;;;11.17;;
7587;SDS011;3835;48.850;8.938;2023-12-20T02:44:56;12.03;;;11.60;;
7587;SDS011;3835;48.850;8.938;2023-12-20T02:47:23;11.37;;;10.97;;
7587;SDS011;3835;48.850;8.938;2023-12-20T02:49:49;12.13;;;11.73;;
7587;SDS011;3835;48.850;8.938;2023-12-20T02:52:17;10.70;;;10.30;;
7587;SDS011;3835;48.850;8.938;2023-12-20T02:54:44;11.37;;;10.97;;
7587;SDS011;3835;48.850;8.938;2023-12-20T02:57:13;12.60;;;12.07;;
7587;SDS011;3835;48.850;8.938;2023-12-20T02:59:39;13.67;;;13.17;;
7587;SDS011;3835;48.850;8.938;2023-12-20T03:02:06;14.40;;;13.80;;
7587;SDS011;3835;48.850;8.938;2023-12-20T03:04:33;12.60;;;12.10;;
7587;SDS011;3835;48.850;8.938;2023-12-20T03:07:00;13.57;;;13.07;;
7587;SDS011;3835;48.850;8.938;2023-12-20T03:09:27;11.53;;;11.13;;
7587;SDS011;3835;48.850;8.938;2023-12-20T03:11:54;10.77;;;10.37;;
7587;SDS011;3835;48.850;8.938;2023-12-20T03:14:22;12.20;;;11.73;;
7587;SDS011;3835;48.850;8.938;2023-12-20T03:16:49;10.87;;;10.47;;
7587;SDS011;3835;48.850;8.938;2023-12-20T03:19:16;12.77;;;12.27;;
7587;SDS011;3835;48.850;8.938;2023-12-20T03:21:44;10.57;;;10.13;;
7587;SDS011;3835;48.850;8.938;2023-12-20T03:24:10;10.53;;;10.13;;
7587;SDS011;3835;48.850;8.938;2023-12-20T03:26:37;11.13;;;10.70;;
7587;SDS011;3835;48.850;8.938;2023-12-20T03:29:04;11.83;;;11.33;;
7587;SDS011;3835;48.850;8.938;2023-12-20T03:31:32;13.33;;;12.77;;
7587;SDS011;3835;48.850;8.938;2023-12-20T03:33:59;11.23;;;10.73;;
7587;SDS011;3835;48.850;8.938;2023-12-20T03:36:26;11.67;;;11.23;;
7587;SDS011;3835;48.850;8.938;2023-12-20T03:38:53;13.00;;;12.50;;
7587;SDS011;3835;48.850;8.938;2023-12-20T03:41:19;11.00;;;10.60;;
7587;SDS011;3835;48.850;8.938;2023-12-20T03:43:46;10.97;;;10.47;;
7587;SDS011;3835;48.850;8.938;2023-12-20T03:46:13;11.50;;;11.00;;
7587;SDS011;3835;48.850;8.938;2023-12-20T03:48:41;11.73;;;11.23;;
7587;SDS011;3835;48.850;8.938;2023-12-20T03:51:08;10.90;;;10.40;;
7587;SDS011;3835;48.850;8.938;2023-12-20T03:53:35;10.47;;;10.07;;
7587;SDS011;3835;48.850;8.938;2023-12-20T03:56:02;11.00;;;10.60;;
7587;SDS011;3835;48.850;8.938;2023-12-20T03:58:29;10.63;;;10.23;;
7587;SDS011;3835;48.850;8.938;2023-12-20T04:00:56;10.97;;;10.57;;
7587;SDS011;3835;48.850;8.938;2023-12-20T04:03:22;11.43;;;11.03;;
7587;SDS011;3835;48.850;8.938;2023-12-20T04:05:51;11.57;;;11.00;;
7587;SDS011;3835;48.850;8.938;2023-12-20T04:08:17;10.77;;;10.37;;
7587;SDS011;3835;48.850;8.938;2023-12-20T04:10:43;10.57;;;10.17;;
7587;SDS011;3835;48.850;8.938;2023-12-20T04:13:10;11.40;;;11.00;;
7587;SDS011;3835;48.850;8.938;2023-12-20T04:15:37;14.27;;;13.67;;
7587;SDS011;3835;48.850;8.938;2023-12-20T04:18:04;11.43;;;10.93;;
7587;SDS011;3835;48.850;8.938;2023-12-20T04:20:31;10.70;;;10.30;;
7587;SDS011;3835;48.850;8.938;2023-12-20T04:22:59;10.83;;;10.43;;
7587;SDS011;3835;48.850;8.938;2023-12-20T04:25:26;11.37;;;10.87;;
7587;SDS011;3835;48.850;8.938;2023-12-20T04:27:53;10.73;;;10.33;;
7587;SDS011;3835;48.850;8.938;2023-12-20T04:30:20;10.73;;;10.33;;
7587;SDS011;3835;48.850;8.938;2023-12-20T04:32:47;11.27;;;10.87;;
7587;SDS011;3835;48.850;8.938;2023-12-20T04:35:14;11.83;;;11.33;;
7587;SDS011;3835;48.850;8.938;2023-12-20T04:37:41;10.97;;;10.57;;
7587;SDS011;3835;48.850;8.938;2023-12-20T04:40:09;9.77;;;9.37;;
7587;SDS011;3835;48.850;8.938;2023-12-20T04:42:36;11.07;;;10.67;;
7587;SDS011;3835;48.850;8.938;2023-12-20T04:45:04;10.97;;;10.57;;
7587;SDS011;3835;48.850;8.938;2023-12-20T04:47:31;11.23;;;10.83;;
7587;SDS011;3835;48.850;8.938;2023-12-20T04:49:58;14.37;;;13.50;;
7587;SDS011;3835;48.850;8.938;2023-12-20T04:52:25;13.00;;;12.50;;
7587;SDS011;3835;48.850;8.938;2023-12-20T04:54:52;11.37;;;10.87;;
7587;SDS011;3835;48.850;8.938;2023-12-20T04:57:21;14.00;;;13.23;;
7587;SDS011;3835;48.850;8.938;2023-12-20T04:59:48;11.63;;;11.13;;
7587;SDS011;3835;48.850;8.938;2023-12-20T05:02:15;15.67;;;14.87;;
7587;SDS011;3835;48.850;8.938;2023-12-20T05:04:42;15.43;;;14.67;;
7587;SDS011;3835;48.850;8.938;2023-12-20T05:07:08;39.33;;;35.33;;
7587;SDS011;3835;48.850;8.938;2023-12-20T05:09:35;37.90;;;31.23;;
7587;SDS011;3835;48.850;8.938;2023-12-20T05:12:02;21.57;;;19.93;;
7587;SDS011;3835;48.850;8.938;2023-12-20T05:14:31;18.80;;;17.50;;
7587;SDS011;3835;48.850;8.938;2023-12-20T05:16:58;15.93;;;14.93;;
7587;SDS011;3835;48.850;8.938;2023-12-20T05:19:25;17.87;;;16.37;;
7587;SDS011;3835;48.850;8.938;2023-12-20T05:21:52;15.53;;;14.70;;
7587;SDS011;3835;48.850;8.938;2023-12-20T05:24:19;15.27;;;14.47;;
7587;SDS011;3835;48.850;8.938;2023-12-20T05:26:46;14.33;;;13.50;;
7587;SDS011;3835;48.850;8.938;2023-12-20T05:29:13;12.80;;;12.13;;
7587;SDS011;3835;48.850;8.938;2023-12-20T05:31:41;12.00;;;11.40;;
7587;SDS011;3835;48.850;8.938;2023-12-20T05:34:08;12.90;;;12.30;;
7587;SDS011;3835;48.850;8.938;2023-12-20T05:36:35;14.47;;;13.67;;
7587;SDS011;3835;48.850;8.938;2023-12-20T05:39:03;13.50;;;12.80;;
7587;SDS011;3835;48.850;8.938;2023-12-20T05:41:31;13.70;;;13.00;;
7587;SDS011;3835;48.850;8.938;2023-12-20T05:43:58;13.63;;;12.93;;
7587;SDS011;3835;48.850;8.938;2023-12-20T05:46:24;14.53;;;13.73;;
7587;SDS011;3835;48.850;8.938;2023-12-20T05:48:54;13.23;;;12.53;;
7587;SDS011;3835;48.850;8.938;2023-12-20T05:51:20;13.90;;;13.17;;
7587;SDS011;3835;48.850;8.938;2023-12-20T05:53:47;13.70;;;12.90;;
7587;SDS011;3835;48.850;8.938;2023-12-20T05:56:15;13.70;;;13.10;;
7587;SDS011;3835;48.850;8.938;2023-12-20T05:58:41;12.10;;;11.50;;
7587;SDS011;3835;48.850;8.938;2023-12-20T06:01:08;11.40;;;10.80;;
7587;SDS011;3835;48.850;8.938;2023-12-20T06:03:35;11.60;;;11.10;;
7587;SDS011;3835;48.850;8.938;2023-12-20T06:06:05;14.13;;;13.23;;
7587;SDS011;3835;48.850;8.938;2023-12-20T06:08:33;15.77;;;14.77;;
7587;SDS011;3835;48.850;8.938;2023-12-20T06:11:00;17.13;;;16.03;;
7587;SDS011;3835;48.850;8.938;2023-12-20T06:13:27;14.47;;;13.67;;
7587;SDS011;3835;48.850;8.938;2023-12-20T06:15:54;17.93;;;16.23;;
7587;SDS011;3835;48.850;8.938;2023-12-20T06:18:21;13.50;;;12.70;;
7587;SDS011;3835;48.850;8.938;2023-12-20T06:20:49;19.17;;;17.57;;
7587;SDS011;3835;48.850;8.938;2023-12-20T06:23:17;12.90;;;12.20;;
7587;SDS011;3835;48.850;8.938;2023-12-20T06:25:44;13.80;;;12.90;;
7587;SDS011;3835;48.850;8.938;2023-12-20T06:28:11;19.20;;;17.37;;
7587;SDS011;3835;48.850;8.938;2023-12-20T06:30:39;15.10;;;14.00;;
7587;SDS011;3835;48.850;8.938;2023-12-20T06:33:06;12.60;;;11.90;;
7587;SDS011;3835;48.850;8.938;2023-12-20T06:35:34;15.30;;;14.17;;
7587;SDS011;3835;48.850;8.938;2023-12-20T06:38:01;15.93;;;14.80;;
7587;SDS011;3835;48.850;8.938;2023-12-20T06:40:30;15.33;;;14.23;;
7587;SDS011;3835;48.850;8.938;2023-12-20T06:42:57;13.67;;;12.87;;
7587;SDS011;3835;48.850;8.938;2023-12-20T06:45:24;16.07;;;14.77;;
7587;SDS011;3835;48.850;8.938;2023-12-20T06:47:51;14.97;;;14.13;;
7587;SDS011;3835;48.850;8.938;2023-12-20T06:50:19;16.50;;;15.00;;
7587;SDS011;3835;48.850;8.938;2023-12-20T06:52:46;16.73;;;15.43;;
7587;SDS011;3835;48.850;8.938;2023-12-20T06:55:13;20.00;;;17.80;;
7587;SDS011;3835;48.850;8.938;2023-12-20T06:57:41;16.17;;;14.97;;
7587;SDS011;3835;48.850;8.938;2023-12-20T07:00:08;15.57;;;14.37;;
7587;SDS011;3835;48.850;8.938;2023-12-20T07:02:39;18.10;;;16.43;;
7587;SDS011;3835;48.850;8.938;2023-12-20T07:05:06;18.83;;;17.10;;
7587;SDS011;3835;48.850;8.938;2023-12-20T07:07:33;16.03;;;14.70;;
7587;SDS011;3835;48.850;8.938;2023-12-20T07:10:00;17.23;;;15.83;;
7587;SDS011;3835;48.850;8.938;2023-12-20T07:12:27;16.27;;;14.83;;
7587;SDS011;3835;48.850;8.938;2023-12-20T07:14:55;15.47;;;14.47;;
7587;SDS011;3835;48.850;8.938;2023-12-20T07:17:22;17.10;;;16.00;;
7587;SDS011;3835;48.850;8.938;2023-12-20T07:19:49;14.23;;;13.43;;
7587;SDS011;3835;48.850;8.938;2023-12-20T07:22:16;15.63;;;14.70;;
7587;SDS011;3835;48.850;8.938;2023-12-20T07:24:42;16.03;;;14.73;;
7587;SDS011;3835;48.850;8.938;2023-12-20T07:27:09;21.00;;;16.93;;
7587;SDS011;3835;48.850;8.938;2023-12-20T07:29:36;16.43;;;15.27;;
7587;SDS011;3835;48.850;8.938;2023-12-20T07:32:05;14.10;;;13.20;;
7587;SDS011;3835;48.850;8.938;2023-12-20T07:34:32;18.00;;;16.73;;
7587;SDS011;3835;48.850;8.938;2023-12-20T07:36:59;14.73;;;13.67;;
7587;SDS011;3835;48.850;8.938;2023-12-20T07:39:26;14.33;;;13.53;;
7587;SDS011;3835;48.850;8.938;2023-12-20T07:41:53;15.87;;;14.67;;
7587;SDS011;3835;48.850;8.938;2023-12-20T07:44:20;15.47;;;14.43;;
7587;SDS011;3835;48.850;8.938;2023-12-20T07:46:46;16.10;;;15.20;;
7587;SDS011;3835;48.850;8.938;2023-12-20T07:49:15;14.67;;;13.60;;
7587;SDS011;3835;48.850;8.938;2023-12-20T07:51:41;14.80;;;13.90;;
7587;SDS011;3835;48.850;8.938;2023-12-20T07:54:08;14.40;;;13.33;;
7587;SDS011;3835;48.850;8.938;2023-12-20T07:56:35;13.63;;;12.83;;
7587;SDS011;3835;48.850;8.938;2023-12-20T07:59:02;14.67;;;13.87;;
7587;SDS011;3835;48.850;8.938;2023-12-20T08:01:29;15.23;;;14.23;;
7587;SDS011;3835;48.850;8.938;2023-12-20T08:03:56;15.93;;;14.83;;
7587;SDS011;3835;48.850;8.938;2023-12-20T08:06:24;16.33;;;15.20;;
7587;SDS011;3835;48.850;8.938;2023-12-20T08:08:51;15.00;;;13.90;;
7587;SDS011;3835;48.850;8.938;2023-12-20T08:11:18;14.20;;;13.30;;
7587;SDS011;3835;48.850;8.938;2023-12-20T08:13:45;16.87;;;15.47;;
7587;SDS011;3835;48.850;8.938;2023-12-20T08:16:12;14.53;;;13.63;;
7587;SDS011;3835;48.850;8.938;2023-12-20T08:18:40;14.23;;;13.33;;
7587;SDS011;3835;48.850;8.938;2023-12-20T08:21:07;15.40;;;14.50;;
7587;SDS011;3835;48.850;8.938;2023-12-20T08:23:35;15.60;;;14.20;;
7587;SDS011;3835;48.850;8.938;2023-12-20T08:26:03;15.57;;;14.47;;
7587;SDS011;3835;48.850;8.938;2023-12-20T08:28:31;15.10;;;13.93;;
7587;SDS011;3835;48.850;8.938;2023-12-20T08:30:58;15.10;;;14.00;;
7587;SDS011;3835;48.850;8.938;2023-12-20T08:33:24;16.07;;;14.70;;
7587;SDS011;3835;48.850;8.938;2023-12-20T08:35:51;14.87;;;13.60;;
7587;SDS011;3835;48.850;8.938;2023-12-20T08:38:18;15.37;;;14.10;;
7587;SDS011;3835;48.850;8.938;2023-12-20T08:40:46;14.53;;;13.70;;
7587;SDS011;3835;48.850;8.938;2023-12-20T08:43:14;15.33;;;14.43;;
7587;SDS011;3835;48.850;8.938;2023-12-20T08:45:40;14.63;;;13.80;;
7587;SDS011;3835;48.850;8.938;2023-12-20T08:48:07;14.23;;;13.33;;
7587;SDS011;3835;48.850;8.938;2023-12-20T08:50:34;14.30;;;13.17;;
7587;SDS011;3835;48.850;8.938;2023-12-20T08:53:01;13.90;;;12.43;;
7587;SDS011;3835;48.850;8.938;2023-12-20T08:55:28;13.63;;;12.63;;
7587;SDS011;3835;48.850;8.938;2023-12-20T08:57:57;14.10;;;13.20;;
7587;SDS011;3835;48.850;8.938;2023-12-20T09:00:24;13.93;;;13.03;;
7587;SDS011;3835;48.850;8.938;2023-12-20T09:02:52;13.53;;;12.40;;
7587;SDS011;3835;48.850;8.938;2023-12-20T09:05:20;13.27;;;12.57;;
7587;SDS011;3835;48.850;8.938;2023-12-20T09:07:47;12.80;;;12.10;;
7587;SDS011;3835;48.850;8.938;2023-12-20T09:10:14;13.60;;;12.80;;
7587;SDS011;3835;48.850;8.938;2023-12-20T09:12:41;19.53;;;18.43;;
7587;SDS011;3835;48.850;8.938;2023-12-20T09:15:09;12.87;;;12.27;;
7587;SDS011;3835;48.850;8.938;2023-12-20T09:17:36;12.50;;;11.80;;
7587;SDS011;3835;48.850;8.938;2023-12-20T09:20:03;11.30;;;10.50;;
7587;SDS011;3835;48.850;8.938;2023-12-20T09:22:32;13.63;;;12.93;;
7587;SDS011;3835;48.850;8.938;2023-12-20T09:24:58;11.77;;;10.97;;
7587;SDS011;3835;48.850;8.938;2023-12-20T09:27:26;12.67;;;12.00;;
7587;SDS011;3835;48.850;8.938;2023-12-20T09:29:53;13.47;;;12.67;;
7587;SDS011;3835;48.850;8.938;2023-12-20T09:32:21;13.40;;;12.60;;
7587;SDS011;3835;48.850;8.938;2023-12-20T09:34:48;13.33;;;12.33;;
7587;SDS011;3835;48.850;8.938;2023-12-20T09:37:15;13.90;;;13.07;;
7587;SDS011;3835;48.850;8.938;2023-12-20T09:39:42;13.43;;;12.77;;
7587;SDS011;3835;48.850;8.938;2023-12-20T09:42:09;17.60;;;16.43;;
7587;SDS011;3835;48.850;8.938;2023-12-20T09:44:43;11.60;;;10.80;;
7587;SDS011;3835;48.850;8.938;2023-12-20T09:47:10;13.87;;;12.87;;
7587;SDS011;3835;48.850;8.938;2023-12-20T09:49:38;11.67;;;11.07;;
7587;SDS011;3835;48.850;8.938;2023-12-20T09:52:06;12.63;;;11.83;;
7587;SDS011;3835;48.850;8.938;2023-12-20T09:54:35;12.27;;;11.33;;
7587;SDS011;3835;48.850;8.938;2023-12-20T09:57:02;14.00;;;13.00;;
7587;SDS011;3835;48.850;8.938;2023-12-20T09:59:30;11.07;;;10.40;;
7587;SDS011;3835;48.850;8.938;2023-12-20T10:01:57;12.37;;;11.67;;
7587;SDS011;3835;48.850;8.938;2023-12-20T10:04:24;12.00;;;11.43;;
7587;SDS011;3835;48.850;8.938;2023-12-20T10:06:52;12.57;;;11.67;;
7587;SDS011;3835;48.850;8.938;2023-12-20T10:09:19;12.57;;;11.37;;
7587;SDS011;3835;48.850;8.938;2023-12-20T10:11:46;13.23;;;12.33;;
7587;SDS011;3835;48.850;8.938;2023-12-20T10:14:12;13.10;;;12.27;;
7587;SDS011;3835;48.850;8.938;2023-12-20T10:16:40;12.50;;;11.60;;
7587;SDS011;3835;48.850;8.938;2023-12-20T10:19:07;13.87;;;13.03;;
7587;SDS011;3835;48.850;8.938;2023-12-20T10:21:34;13.53;;;12.67;;
7587;SDS011;3835;48.850;8.938;2023-12-20T10:24:02;12.37;;;11.47;;
7587;SDS011;3835;48.850;8.938;2023-12-20T10:26:29;16.47;;;15.13;;
7587;SDS011;3835;48.850;8.938;2023-12-20T10:28:59;13.20;;;12.40;;
7587;SDS011;3835;48.850;8.938;2023-12-20T10:31:27;11.47;;;10.57;;
7587;SDS011;3835;48.850;8.938;2023-12-20T10:33:55;13.10;;;12.03;;
7587;SDS011;3835;48.850;8.938;2023-12-20T10:36:24;11.80;;;10.97;;
7587;SDS011;3835;48.850;8.938;2023-12-20T10:38:53;12.50;;;11.70;;
7587;SDS011;3835;48.850;8.938;2023-12-20T10:41:24;13.40;;;12.50;;
7587;SDS011;3835;48.850;8.938;2023-12-20T10:43:53;12.50;;;11.70;;
7587;SDS011;3835;48.850;8.938;2023-12-20T10:46:22;11.83;;;11.03;;
7587;SDS011;3835;48.850;8.938;2023-12-20T10:48:51;12.43;;;11.53;;
7587;SDS011;3835;48.850;8.938;2023-12-20T10:51:20;11.30;;;10.50;;
7587;SDS011;3835;48.850;8.938;2023-12-20T10:53:47;13.97;;;13.13;;
7587;SDS011;3835;48.850;8.938;2023-12-20T10:56:15;12.70;;;11.90;;
7587;SDS011;3835;48.850;8.938;2023-12-20T10:58:46;12.80;;;12.13;;
7587;SDS011;3835;48.850;8.938;2023-12-20T11:01:15;12.67;;;11.97;;
7587;SDS011;3835;48.850;8.938;2023-12-20T11:03:44;12.53;;;11.63;;
7587;SDS011;3835;48.850;8.938;2023-12-20T11:06:18;11.83;;;10.93;;
7587;SDS011;3835;48.850;8.938;2023-12-20T11:08:55;13.00;;;11.77;;
7587;SDS011;3835;48.850;8.938;2023-12-20T11:11:35;11.73;;;10.93;;
7587;SDS011;3835;48.850;8.938;2023-12-20T11:14:12;12.23;;;11.53;;
7587;SDS011;3835;48.850;8.938;2023-12-20T11:16:45;12.93;;;11.70;;
7587;SDS011;3835;48.850;8.938;2023-12-20T11:19:12;12.43;;;11.73;;
7587;SDS011;3835;48.850;8.938;2023-12-20T11:21:40;13.03;;;12.13;;
7587;SDS011;3835;48.850;8.938;2023-12-20T11:24:07;13.13;;;12.10;;
7587;SDS011;3835;48.850;8.938;2023-12-20T11:26:34;13.20;;;12.40;;
7587;SDS011;3835;48.850;8.938;2023-12-20T11:32:00;12.63;;;11.80;;
7587;SDS011;3835;48.850;8.938;2023-12-20T11:34:28;13.20;;;12.30;;
7587;SDS011;3835;48.850;8.938;2023-12-20T11:36:59;13.80;;;12.90;;
7587;SDS011;3835;48.850;8.938;2023-12-20T11:39:26;13.47;;;12.40;;
7587;SDS011;3835;48.850;8.938;2023-12-20T11:41:54;11.97;;;11.17;;
7587;SDS011;3835;48.850;8.938;2023-12-20T11:44:22;13.37;;;12.53;;
7587;SDS011;3835;48.850;8.938;2023-12-20T11:46:52;13.73;;;12.70;;
7587;SDS011;3835;48.850;8.938;2023-12-20T11:49:22;14.37;;;13.37;;
7587;SDS011;3835;48.850;8.938;2023-12-20T11:51:50;12.30;;;11.47;;
7587;SDS011;3835;48.850;8.938;2023-12-20T11:54:17;13.10;;;12.13;;
7587;SDS011;3835;48.850;8.938;2023-12-20T11:56:44;14.73;;;13.20;;
7587;SDS011;3835;48.850;8.938;2023-12-20T11:59:11;13.67;;;12.40;;
7587;SDS011;3835;48.850;8.938;2023-12-20T12:01:38;11.53;;;10.73;;
7587;SDS011;3835;48.850;8.938;2023-12-20T12:04:06;12.33;;;11.53;;
7587;SDS011;3835;48.850;8.938;2023-12-20T12:06:33;12.13;;;11.33;;
7587;SDS011;3835;48.850;8.938;2023-12-20T12:09:00;12.07;;;11.17;;
7587;SDS011;3835;48.850;8.938;2023-12-20T12:11:29;12.90;;;12.30;;
7587;SDS011;3835;48.850;8.938;2023-12-20T12:13:56;11.90;;;10.93;;
7587;SDS011;3835;48.850;8.938;2023-12-20T12:16:22;12.80;;;11.87;;
7587;SDS011;3835;48.850;8.938;2023-12-20T12:18:55;13.03;;;12.23;;
7587;SDS011;3835;48.850;8.938;2023-12-20T12:21:23;12.07;;;11.37;;
7587;SDS011;3835;48.850;8.938;2023-12-20T12:23:50;11.77;;;10.93;;
7587;SDS011;3835;48.850;8.938;2023-12-20T12:26:18;10.90;;;9.97;;
7587;SDS011;3835;48.850;8.938;2023-12-20T12:28:45;12.47;;;11.43;;
7587;SDS011;3835;48.850;8.938;2023-12-20T12:31:15;12.23;;;11.47;;
7587;SDS011;3835;48.850;8.938;2023-12-20T12:33:42;13.97;;;12.77;;
7587;SDS011;3835;48.850;8.938;2023-12-20T12:36:09;13.07;;;12.13;;
7587;SDS011;3835;48.850;8.938;2023-12-20T12:38:38;11.83;;;11.23;;
7587;SDS011;3835;48.850;8.938;2023-12-20T12:41:05;12.67;;;12.03;;
7587;SDS011;3835;48.850;8.938;2023-12-20T12:43:32;11.80;;;11.17;;
7587;SDS011;3835;48.850;8.938;2023-12-20T12:45:59;12.33;;;11.33;;
7587;SDS011;3835;48.850;8.938;2023-12-20T12:48:26;12.67;;;11.77;;
7587;SDS011;3835;48.850;8.938;2023-12-20T12:50:54;12.50;;;11.53;;
7587;SDS011;3835;48.850;8.938;2023-12-20T12:53:24;12.57;;;11.87;;
7587;SDS011;3835;48.850;8.938;2023-12-20T12:55:53;14.13;;;13.20;;
7587;SDS011;3835;48.850;8.938;2023-12-20T12:58:20;12.50;;;11.63;;
7587;SDS011;3835;48.850;8.938;2023-12-20T13:00:47;14.23;;;13.43;;
7587;SDS011;3835;48.850;8.938;2023-12-20T13:03:14;13.77;;;12.93;;
7587;SDS011;3835;48.850;8.938;2023-12-20T13:05:41;13.53;;;12.63;;
7587;SDS011;3835;48.850;8.938;2023-12-20T13:08:08;13.23;;;12.33;;
7587;SDS011;3835;48.850;8.938;2023-12-20T13:10:37;13.20;;;12.50;;
7587;SDS011;3835;48.850;8.938;2023-12-20T13:13:05;12.13;;;11.47;;
7587;SDS011;3835;48.850;8.938;2023-12-20T13:15:32;12.47;;;11.37;;
7587;SDS011;3835;48.850;8.938;2023-12-20T13:17:59;13.80;;;12.90;;
7587;SDS011;3835;48.850;8.938;2023-12-20T13:20:26;12.60;;;12.00;;
7587;SDS011;3835;48.850;8.938;2023-12-20T13:22:53;12.83;;;11.80;;
7587;SDS011;3835;48.850;8.938;2023-12-20T13:25:19;12.23;;;11.53;;
7587;SDS011;3835;48.850;8.938;2023-12-20T13:27:46;12.13;;;11.37;;
7587;SDS011;3835;48.850;8.938;2023-12-20T13:30:15;12.57;;;11.90;;
7587;SDS011;3835;48.850;8.938;2023-12-20T13:32:43;11.43;;;10.73;;
7587;SDS011;3835;48.850;8.938;2023-12-20T13:35:10;12.90;;;12.13;;
7587;SDS011;3835;48.850;8.938;2023-12-20T13:37:37;13.70;;;12.90;;
7587;SDS011;3835;48.850;8.938;2023-12-20T13:40:05;11.77;;;10.97;;
7587;SDS011;3835;48.850;8.938;2023-12-20T13:42:33;12.23;;;11.40;;
7587;SDS011;3835;48.850;8.938;2023-12-20T13:45:00;11.50;;;10.87;;
7587;SDS011;3835;48.850;8.938;2023-12-20T13:47:31;12.43;;;11.73;;
7587;SDS011;3835;48.850;8.938;2023-12-20T13:49:58;13.53;;;12.53;;
7587;SDS011;3835;48.850;8.938;2023-12-20T13:52:25;12.60;;;11.70;;
7587;SDS011;3835;48.850;8.938;2023-12-20T13:54:51;15.00;;;13.87;;
7587;SDS011;3835;48.850;8.938;2023-12-20T13:57:18;12.63;;;11.93;;
7587;SDS011;3835;48.850;8.938;2023-12-20T13:59:45;12.83;;;11.63;;
7587;SDS011;3835;48.850;8.938;2023-12-20T14:02:12;13.47;;;12.67;;
7587;SDS011;3835;48.850;8.938;2023-12-20T14:04:40;12.83;;;12.03;;
7587;SDS011;3835;48.850;8.938;2023-12-20T14:07:07;13.13;;;12.30;;
7587;SDS011;3835;48.850;8.938;2023-12-20T14:09:35;12.80;;;11.90;;
7587;SDS011;3835;48.850;8.938;2023-12-20T14:12:02;13.17;;;12.07;;
7587;SDS011;3835;48.850;8.938;2023-12-20T14:14:29;12.67;;;11.57;;
7587;SDS011;3835;48.850;8.938;2023-12-20T14:16:56;14.27;;;12.90;;
7587;SDS011;3835;48.850;8.938;2023-12-20T14:19:22;14.33;;;13.20;;
7587;SDS011;3835;48.850;8.938;2023-12-20T14:21:51;13.10;;;11.97;;
7587;SDS011;3835;48.850;8.938;2023-12-20T14:24:17;12.07;;;11.17;;
7587;SDS011;3835;48.850;8.938;2023-12-20T14:26:44;12.93;;;11.93;;
7587;SDS011;3835;48.850;8.938;2023-12-20T14:29:11;12.83;;;11.83;;
7587;SDS011;3835;48.850;8.938;2023-12-20T14:31:38;14.70;;;13.60;;
7587;SDS011;3835;48.850;8.938;2023-12-20T14:34:05;14.07;;;13.07;;
7587;SDS011;3835;48.850;8.938;2023-12-20T14:36:33;13.57;;;12.67;;
7587;SDS011;3835;48.850;8.938;2023-12-20T14:39:02;12.83;;;12.10;;
7587;SDS011;3835;48.850;8.938;2023-12-20T14:41:29;11.63;;;10.73;;
7587;SDS011;3835;48.850;8.938;2023-12-20T14:43:56;13.10;;;12.10;;
7587;SDS011;3835;48.850;8.938;2023-12-20T14:46:24;12.87;;;11.83;;
7587;SDS011;3835;48.850;8.938;2023-12-20T14:48:51;13.57;;;12.63;;
7587;SDS011;3835;48.850;8.938;2023-12-20T14:51:18;14.47;;;13.37;;